Time;durP1;ratioP1;P1;durP2;ratioP2;P2;SDS_P1;SDS_P2;PMS_P1;PMS_P2;Temp;Humidity;BMP_temperature;BMP_pressure;BME280_temperature;BME280_humidity;BME280_pressure;Samples;Min_cycle;Max_cycle;Signal;HPM_P1;HPM_P2
2024/04/24 00:01:09;;;;;;;12.45;9.05;;;23.70;46.40;;;;;;6542705;26;79500;-57
2024/04/24 00:04:10;;;;;;;12.98;8.85;;;23.60;47.00;;;;;;6563848;26;79238;-56
2024/04/24 00:07:10;;;;;;;12.95;9.75;;;23.60;46.30;;;;;;6555905;26;79160;-55
2024/04/24 00:10:11;;;;;;;13.07;9.15;;;23.60;46.40;;;;;;6548388;26;80050;-54
2024/04/24 00:13:11;;;;;;;11.93;8.45;;;23.60;46.50;;;;;;6540250;26;79055;-56
2024/04/24 00:16:12;;;;;;;11.68;8.80;;;23.70;46.50;;;;;;6540157;26;88117;-55
2024/04/24 00:19:13;;;;;;;14.50;9.10;;;23.60;46.40;;;;;;6547931;26;79712;-54
2024/04/24 00:22:13;;;;;;;10.30;7.40;;;23.60;46.40;;;;;;6577370;26;78436;-55
2024/04/24 00:25:14;;;;;;;12.15;8.45;;;23.70;46.40;;;;;;6541635;26;80233;-54
2024/04/24 00:28:14;;;;;;;13.20;9.05;;;23.60;46.30;;;;;;6539530;26;79400;-55
2024/04/24 00:31:15;;;;;;;11.48;8.55;;;23.60;46.30;;;;;;6572709;26;81927;-54
2024/04/24 00:34:15;;;;;;;10.68;8.27;;;23.60;46.30;;;;;;6540327;26;78904;-52
2024/04/24 00:37:16;;;;;;;11.05;8.43;;;23.60;46.40;;;;;;6539694;26;79038;-56
2024/04/24 00:40:16;;;;;;;11.23;8.15;;;23.60;46.30;;;;;;6585766;26;78871;-57
2024/04/24 00:43:17;;;;;;;9.40;7.85;;;23.60;46.30;;;;;;6626849;26;79560;-56
2024/04/24 00:46:17;;;;;;;10.00;7.50;;;23.60;46.30;;;;;;6590198;26;79461;-54
2024/04/24 00:49:18;;;;;;;11.25;8.32;;;23.60;46.30;;;;;;6541435;26;80176;-59
2024/04/24 00:52:18;;;;;;;11.45;7.80;;;23.60;46.20;;;;;;6540125;26;78843;-59
2024/04/24 00:55:19;;;;;;;11.70;7.78;;;23.60;46.20;;;;;;6565519;26;79044;-59
2024/04/24 00:58:19;;;;;;;10.18;7.60;;;23.60;46.20;;;;;;6542007;26;78748;-58
2024/04/24 01:01:20;;;;;;;12.43;7.80;;;23.70;46.20;;;;;;6541041;26;80373;-59
2024/04/24 01:04:20;;;;;;;9.93;6.97;;;23.70;46.10;;;;;;6547817;26;78986;-59
2024/04/24 01:07:21;;;;;;;9.70;7.03;;;23.60;46.00;;;;;;6543611;26;79520;-60
2024/04/24 01:10:21;;;;;;;9.35;7.35;;;23.60;46.10;;;;;;6545130;26;79202;-60
2024/04/24 01:13:22;;;;;;;10.02;7.25;;;23.70;46.10;;;;;;6545078;26;79048;-61
2024/04/24 01:16:22;;;;;;;9.93;6.95;;;23.60;46.10;;;;;;6539961;26;79035;-61
2024/04/24 01:19:23;;;;;;;8.27;6.75;;;23.60;46.10;;;;;;6545058;26;78991;-60
2024/04/24 01:22:23;;;;;;;9.73;7.45;;;23.60;46.10;;;;;;6568185;26;79856;-57
2024/04/24 01:25:24;;;;;;;9.27;7.07;;;23.60;46.10;;;;;;6588173;26;78675;-59
2024/04/24 01:28:26;;;;;;;10.90;7.18;;;23.60;46.00;;;;;;6539411;26;78898;-60
2024/04/24 01:31:26;;;;;;;8.93;6.57;;;23.60;46.10;;;;;;6541601;26;78906;-60
2024/04/24 01:34:27;;;;;;;10.43;6.40;;;23.60;46.10;;;;;;6541147;26;79607;-59
2024/04/24 01:37:27;;;;;;;8.68;6.68;;;23.60;46.00;;;;;;6542480;26;79043;-59
2024/04/24 01:40:28;;;;;;;9.60;6.82;;;23.60;46.00;;;;;;6540502;26;79904;-60
2024/04/24 01:43:28;;;;;;;8.98;7.18;;;23.60;46.00;;;;;;6540492;26;79301;-48
2024/04/24 01:46:29;;;;;;;10.82;7.20;;;23.60;46.00;;;;;;6540755;26;79172;-50
2024/04/24 01:49:29;;;;;;;9.13;6.55;;;23.60;46.00;;;;;;6540736;26;78508;-53
2024/04/24 01:52:30;;;;;;;8.82;6.72;;;23.60;45.90;;;;;;6538454;26;80982;-51
2024/04/24 01:55:30;;;;;;;9.07;6.82;;;23.60;45.90;;;;;;6582006;26;78782;-49
2024/04/24 01:58:31;;;;;;;9.18;6.55;;;23.60;45.90;;;;;;6561754;26;79187;-53
2024/04/24 02:01:31;;;;;;;9.52;6.80;;;23.60;45.90;;;;;;6574144;26;78723;-52
2024/04/24 02:04:32;;;;;;;9.18;6.63;;;23.60;45.90;;;;;;6568159;26;79454;-50
2024/04/24 02:07:32;;;;;;;9.57;6.38;;;23.60;45.90;;;;;;6570609;26;80963;-52
2024/04/24 02:10:33;;;;;;;10.20;6.63;;;23.60;45.90;;;;;;6574108;26;79783;-53
2024/04/24 02:13:33;;;;;;;8.50;6.38;;;23.60;45.90;;;;;;6553244;26;78876;-49
2024/04/24 02:16:34;;;;;;;9.85;7.05;;;23.60;45.90;;;;;;6581827;26;80583;-53
2024/04/24 02:19:34;;;;;;;8.75;6.43;;;23.60;45.90;;;;;;6539624;26;78828;-49
2024/04/24 02:22:35;;;;;;;7.95;6.40;;;23.60;45.80;;;;;;6617084;26;82468;-63
2024/04/24 02:25:36;;;;;;;9.60;6.18;;;23.60;45.80;;;;;;6566724;26;80485;-64
2024/04/24 02:28:37;;;;;;;9.13;6.60;;;23.60;45.90;;;;;;6575337;26;78776;-64
2024/04/24 02:31:37;;;;;;;10.68;7.15;;;23.60;45.80;;;;;;6579410;26;80642;-65
2024/04/24 02:34:38;;;;;;;8.70;6.50;;;23.60;45.80;;;;;;6560974;26;79401;-66
2024/04/24 02:37:38;;;;;;;7.28;6.32;;;23.60;45.90;;;;;;6537837;26;78775;-65
2024/04/24 02:40:39;;;;;;;6.90;5.82;;;23.60;45.80;;;;;;6546358;26;79700;-66
2024/04/24 02:43:40;;;;;;;11.10;6.47;;;23.60;45.70;;;;;;6558122;26;78921;-66
2024/04/24 02:46:40;;;;;;;8.57;6.60;;;23.60;45.70;;;;;;6557763;26;79875;-65
2024/04/24 02:49:41;;;;;;;8.57;6.38;;;23.60;45.70;;;;;;6539825;26;78956;-65
2024/04/24 02:52:41;;;;;;;7.40;5.93;;;23.60;45.70;;;;;;6537625;26;80276;-63
2024/04/24 02:55:42;;;;;;;7.75;6.38;;;23.60;45.80;;;;;;6551802;26;78907;-65
2024/04/24 02:58:42;;;;;;;8.38;6.07;;;23.60;45.70;;;;;;6585526;26;83560;-56
2024/04/24 03:01:43;;;;;;;6.20;5.20;;;23.70;45.90;;;;;;6587830;26;86481;-51
2024/04/24 03:04:43;;;;;;;8.55;6.43;;;23.70;45.80;;;;;;6565922;26;79145;-55
2024/04/24 03:07:44;;;;;;;6.65;5.30;;;23.70;45.90;;;;;;6562068;26;85350;-56
2024/04/24 03:10:44;;;;;;;8.52;6.25;;;23.70;46.20;;;;;;6579298;26;79064;-53
2024/04/24 03:13:45;;;;;;;7.68;5.68;;;23.70;46.10;;;;;;6582228;25;79968;-55
2024/04/24 03:16:45;;;;;;;8.90;6.10;;;23.70;45.80;;;;;;6587633;26;80214;-57
2024/04/24 03:19:46;;;;;;;9.02;6.20;;;23.60;45.80;;;;;;6572300;26;79194;-55
2024/04/24 03:22:46;;;;;;;9.48;6.03;;;23.60;45.70;;;;;;6580061;26;78983;-58
2024/04/24 03:25:47;;;;;;;7.20;5.53;;;23.60;45.70;;;;;;6548277;26;79263;-58
2024/04/24 03:28:47;;;;;;;8.07;5.78;;;23.60;45.80;;;;;;6542148;26;78804;-58
2024/04/24 03:31:48;;;;;;;6.85;5.50;;;23.60;45.70;;;;;;6539917;26;79728;-57
2024/04/24 03:34:48;;;;;;;7.88;5.30;;;23.60;45.80;;;;;;6540558;26;81414;-49
2024/04/24 03:37:48;;;;;;;7.95;5.38;;;23.60;46.00;;;;;;6575822;26;78911;-57
2024/04/24 03:40:49;;;;;;;10.85;5.68;;;23.60;46.10;;;;;;6553504;26;79247;-56
2024/04/24 03:43:50;;;;;;;8.90;5.45;;;23.60;46.20;;;;;;6565199;26;79037;-55
2024/04/24 03:46:50;;;;;;;9.68;5.15;;;23.60;46.00;;;;;;6539800;26;80678;-55
2024/04/24 03:49:51;;;;;;;6.53;4.88;;;23.60;45.90;;;;;;6539350;26;79351;-58
2024/04/24 03:52:51;;;;;;;7.85;5.65;;;23.60;45.80;;;;;;6615019;26;80326;-59
2024/04/24 03:55:52;;;;;;;7.32;5.13;;;23.60;45.80;;;;;;6592635;26;79306;-59
2024/04/24 03:58:52;;;;;;;7.70;5.32;;;23.50;45.70;;;;;;6600851;26;79349;-53
2024/04/24 04:01:53;;;;;;;8.02;5.55;;;23.60;45.80;;;;;;6564099;26;82162;-56
2024/04/24 04:04:53;;;;;;;6.93;5.25;;;23.60;45.80;;;;;;6573907;26;81932;-57
2024/04/24 04:07:54;;;;;;;6.65;5.30;;;23.60;45.80;;;;;;6559917;26;79549;-58
2024/04/24 04:10:54;;;;;;;8.90;5.70;;;23.60;46.00;;;;;;6547140;26;79543;-55
2024/04/24 04:13:55;;;;;;;8.10;5.85;;;23.60;45.90;;;;;;6569044;26;79135;-56
2024/04/24 04:16:55;;;;;;;30.48;10.18;;;23.50;45.80;;;;;;6572664;26;80326;-52
2024/04/24 04:19:55;;;;;;;47.88;13.38;;;23.50;45.10;;;;;;6564250;26;81811;-50
2024/04/24 04:23:00;;;;;;;27.92;9.57;;;23.30;45.00;;;;;;6593306;26;89965;-54
2024/04/24 04:26:01;;;;;;;30.98;9.77;;;23.20;46.50;;;;;;6544981;26;82623;-47
2024/04/24 04:29:01;;;;;;;30.13;9.00;;;23.30;46.50;;;;;;6564809;26;85782;-50
2024/04/24 04:32:02;;;;;;;37.92;9.80;;;23.30;46.60;;;;;;6567306;26;79130;-56
2024/04/24 04:35:02;;;;;;;26.25;8.30;;;23.30;46.60;;;;;;6595290;26;79131;-60
2024/04/24 04:38:03;;;;;;;27.20;7.38;;;23.40;47.40;;;;;;6583520;26;79236;-59
2024/04/24 04:41:03;;;;;;;28.08;9.55;;;23.40;47.50;;;;;;6560600;26;81280;-59
2024/04/24 04:44:04;;;;;;;56.78;8.43;;;23.40;47.20;;;;;;6554071;26;84899;-61
2024/04/24 04:47:04;;;;;;;24.35;7.35;;;23.40;47.10;;;;;;6569183;26;82977;-63
2024/04/24 04:50:05;;;;;;;20.48;7.90;;;23.50;47.30;;;;;;6590074;26;79285;-62
2024/04/24 04:53:05;;;;;;;21.80;7.72;;;23.50;47.70;;;;;;6567211;26;79050;-61
2024/04/24 04:56:06;;;;;;;21.35;6.50;;;23.50;47.70;;;;;;6576611;26;79062;-59
2024/04/24 04:59:07;;;;;;;12.98;5.95;;;23.50;47.90;;;;;;6596546;26;79792;-61
2024/04/24 05:02:07;;;;;;;23.50;6.75;;;23.60;48.20;;;;;;6587469;26;78957;-60
2024/04/24 05:05:08;;;;;;;22.73;6.93;;;23.60;48.40;;;;;;6568119;26;83313;-60
2024/04/24 05:08:08;;;;;;;13.93;6.00;;;23.60;48.30;;;;;;6562311;26;83375;-57
2024/04/24 05:11:09;;;;;;;15.98;6.05;;;23.60;47.90;;;;;;6548678;26;79314;-57
2024/04/24 05:14:09;;;;;;;14.23;6.32;;;23.70;47.70;;;;;;6605304;26;78883;-51
2024/04/24 05:17:10;;;;;;;16.00;6.75;;;23.70;47.80;;;;;;6564226;26;79188;-52
2024/04/24 05:20:10;;;;;;;18.15;6.57;;;23.70;47.50;;;;;;6603011;26;79193;-58
2024/04/24 05:23:11;;;;;;;20.42;6.85;;;23.70;47.70;;;;;;6603674;26;78773;-59
2024/04/24 05:29:31;;;;;;;17.75;8.30;;;23.70;47.30;;;;;;6596772;26;80719;-58
2024/04/24 05:32:31;;;;;;;11.20;6.15;;;23.70;47.90;;;;;;6577132;26;80355;-53
2024/04/24 05:35:32;;;;;;;15.05;6.75;;;23.70;47.50;;;;;;6576145;26;81856;-55
2024/04/24 05:38:32;;;;;;;14.77;6.35;;;23.70;47.80;;;;;;6598533;26;79118;-52
2024/04/24 05:41:33;;;;;;;16.70;6.75;;;23.70;47.60;;;;;;6580595;26;79443;-56
2024/04/24 05:44:34;;;;;;;13.32;6.95;;;23.70;47.60;;;;;;6603107;26;83289;-58
2024/04/24 05:47:34;;;;;;;13.35;6.28;;;23.70;47.60;;;;;;6571630;26;79867;-57
2024/04/24 05:50:35;;;;;;;11.18;6.47;;;23.70;48.10;;;;;;6587250;26;80145;-57
2024/04/24 05:53:35;;;;;;;17.70;6.63;;;23.70;48.00;;;;;;6606970;26;79087;-57
2024/04/24 05:56:36;;;;;;;13.50;6.63;;;23.70;47.70;;;;;;6569675;26;87175;-59
2024/04/24 05:59:36;;;;;;;10.77;6.43;;;23.70;47.80;;;;;;6572163;26;79094;-57
2024/04/24 06:02:37;;;;;;;16.13;6.95;;;23.70;47.80;;;;;;6563975;26;83917;-55
2024/04/24 06:05:37;;;;;;;11.70;6.10;;;23.70;47.70;;;;;;6572389;26;78908;-56
2024/04/24 06:08:38;;;;;;;10.80;6.53;;;23.70;47.70;;;;;;6595232;26;78920;-54
2024/04/24 06:11:38;;;;;;;15.52;6.60;;;23.70;47.80;;;;;;6563021;26;79152;-57
2024/04/24 06:14:39;;;;;;;8.95;6.43;;;23.70;47.60;;;;;;6558174;26;80146;-57
2024/04/24 06:17:39;;;;;;;16.38;6.25;;;23.70;47.60;;;;;;6557489;26;79227;-58
2024/04/24 06:20:40;;;;;;;8.27;5.90;;;23.70;47.50;;;;;;6579173;26;80173;-58
2024/04/24 06:23:40;;;;;;;14.35;6.70;;;23.60;47.50;;;;;;6538628;26;80783;-57
2024/04/24 06:26:41;;;;;;;9.60;6.55;;;23.70;47.40;;;;;;6553642;26;84250;-59
2024/04/24 06:29:41;;;;;;;11.65;6.35;;;23.60;47.20;;;;;;6555016;26;81535;-58
2024/04/24 06:32:42;;;;;;;9.95;6.90;;;23.60;47.00;;;;;;6550443;26;80456;-59
2024/04/24 06:35:42;;;;;;;11.77;6.82;;;23.60;46.90;;;;;;6552643;26;80700;-59
2024/04/24 06:38:43;;;;;;;13.20;7.18;;;23.60;46.80;;;;;;6554954;26;80049;-66
2024/04/24 06:41:43;;;;;;;12.45;7.30;;;23.60;46.70;;;;;;6553990;26;80152;-65
2024/04/24 06:44:44;;;;;;;14.93;6.88;;;23.50;46.60;;;;;;6553849;26;80723;-65
2024/04/24 06:47:44;;;;;;;9.15;6.80;;;23.60;46.60;;;;;;6555560;26;79709;-68
2024/04/24 06:50:45;;;;;;;11.07;6.80;;;23.50;46.50;;;;;;6553799;26;81571;-67
2024/04/24 06:53:45;;;;;;;16.23;8.10;;;23.50;46.40;;;;;;6558293;26;80082;-68
2024/04/24 06:56:46;;;;;;;15.63;8.10;;;23.50;46.40;;;;;;6557175;26;80820;-69
2024/04/24 06:59:46;;;;;;;18.77;6.40;;;23.50;46.40;;;;;;6557910;26;80880;-67
2024/04/24 07:02:47;;;;;;;11.85;7.50;;;23.50;46.50;;;;;;6556133;26;82856;-67
2024/04/24 07:05:47;;;;;;;11.98;7.15;;;23.60;46.50;;;;;;6554207;26;80449;-67
2024/04/24 07:08:48;;;;;;;10.25;6.93;;;23.60;46.50;;;;;;6557719;26;80580;-66
2024/04/24 07:11:48;;;;;;;13.80;7.03;;;23.50;46.50;;;;;;6552415;26;79732;-66
2024/04/24 07:14:49;;;;;;;10.65;6.90;;;23.60;46.50;;;;;;6557812;26;81693;-66
2024/04/24 07:17:51;;;;;;;13.43;7.32;;;23.60;46.50;;;;;;6557165;26;80635;-67
2024/04/24 07:20:51;;;;;;;10.02;6.95;;;23.60;46.60;;;;;;6551980;26;82222;-66
2024/04/24 07:23:52;;;;;;;9.82;6.10;;;23.50;46.50;;;;;;6567365;26;80672;-67
2024/04/24 07:26:53;;;;;;;10.65;6.97;;;23.60;46.60;;;;;;6564171;26;82558;-68
2024/04/24 07:29:53;;;;;;;11.40;7.10;;;23.60;46.60;;;;;;6585417;26;80248;-73
2024/04/24 07:32:54;;;;;;;10.60;6.70;;;23.50;46.80;;;;;;6584463;26;80508;-54
2024/04/24 07:35:54;;;;;;;8.50;6.30;;;23.60;46.70;;;;;;6579525;26;79284;-57
2024/04/24 07:38:55;;;;;;;13.07;7.15;;;23.60;46.70;;;;;;6564431;26;79410;-59
2024/04/24 07:41:55;;;;;;;12.10;6.90;;;23.60;47.00;;;;;;6585832;26;79908;-57
2024/04/24 07:44:56;;;;;;;16.05;7.13;;;23.60;47.00;;;;;;6589239;26;79349;-58
2024/04/24 07:47:56;;;;;;;9.60;6.72;;;23.50;46.80;;;;;;6595453;26;80022;-56
2024/04/24 07:50:57;;;;;;;10.10;6.85;;;23.50;46.60;;;;;;6595885;26;80328;-72
2024/04/24 07:53:57;;;;;;;13.05;6.97;;;23.50;46.40;;;;;;6574574;26;79005;-73
2024/04/24 07:56:58;;;;;;;11.60;6.88;;;23.50;46.40;;;;;;6594576;26;79780;-71
2024/04/24 07:59:58;;;;;;;13.10;6.97;;;23.50;46.20;;;;;;6579435;26;79381;-71
2024/04/24 08:03:01;;;;;;;11.25;7.32;;;23.50;46.10;;;;;;6594178;26;79153;-71
2024/04/24 08:06:01;;;;;;;10.45;7.22;;;23.50;46.10;;;;;;6585318;26;80863;-72
2024/04/24 08:09:02;;;;;;;10.73;7.35;;;23.50;46.00;;;;;;6565850;26;81272;-62
2024/04/24 08:12:05;;;;;;;13.77;7.90;;;23.50;46.00;;;;;;6574581;26;78856;-60
2024/04/24 08:15:06;;;;;;;8.85;6.53;;;23.50;45.90;;;;;;6603070;26;79139;-59
2024/04/24 08:18:06;;;;;;;11.65;7.18;;;23.40;45.80;;;;;;6603073;26;79785;-59
2024/04/24 08:21:07;;;;;;;8.35;6.85;;;23.40;45.90;;;;;;6609160;26;81490;-59
2024/04/24 08:24:07;;;;;;;11.30;7.43;;;23.40;45.70;;;;;;6600686;26;79137;-59
2024/04/24 08:27:07;;;;;;;13.43;7.55;;;23.50;45.70;;;;;;6539231;26;80087;-59
2024/04/24 08:30:08;;;;;;;10.82;6.78;;;23.50;45.70;;;;;;6540708;26;80623;-55
2024/04/24 08:33:09;;;;;;;11.52;7.03;;;23.40;45.60;;;;;;6579715;26;79284;-53
2024/04/24 08:36:09;;;;;;;9.75;6.43;;;23.40;45.60;;;;;;6551153;26;79172;-56
2024/04/24 08:39:14;;;;;;;11.18;6.68;;;23.40;45.50;;;;;;6539928;26;80445;-57
2024/04/24 08:42:14;;;;;;;10.57;7.18;;;23.40;45.50;;;;;;6539926;26;80162;-56
2024/04/24 08:45:16;;;;;;;13.68;7.43;;;23.50;45.60;;;;;;6575833;26;81963;-57
2024/04/24 08:48:16;;;;;;;12.00;7.55;;;23.40;45.50;;;;;;6578210;26;79095;-58
2024/04/24 08:51:17;;;;;;;11.45;7.03;;;23.40;45.40;;;;;;6551189;26;80821;-59
2024/04/24 08:54:18;;;;;;;11.27;6.97;;;23.40;45.40;;;;;;6563952;26;82663;-59
2024/04/24 08:57:18;;;;;;;13.63;7.30;;;23.50;45.90;;;;;;6562413;26;79367;-60
2024/04/24 09:00:19;;;;;;;12.30;7.32;;;23.50;46.00;;;;;;6557571;26;79609;-60
2024/04/24 09:03:19;;;;;;;15.00;7.50;;;23.50;46.20;;;;;;6580980;26;78838;-60
2024/04/24 09:06:20;;;;;;;72.18;28.55;;;23.60;46.00;;;;;;6584526;26;79323;-64
2024/04/24 09:09:20;;;;;;;93.05;42.25;;;23.60;46.30;;;;;;6609638;26;81732;-65
2024/04/24 09:12:21;;;;;;;193.95;88.00;;;23.60;46.20;;;;;;6580419;26;82208;-66
2024/04/24 09:15:21;;;;;;;298.05;133.88;;;23.60;46.40;;;;;;6584401;26;89172;-65
2024/04/24 09:18:22;;;;;;;332.77;151.30;;;23.70;46.60;;;;;;6570997;26;83832;-65
2024/04/24 09:21:22;;;;;;;349.60;162.73;;;23.70;47.00;;;;;;6567122;26;87157;-64
2024/04/24 09:24:23;;;;;;;410.42;186.95;;;23.70;46.90;;;;;;6569607;26;87333;-66
2024/04/24 09:27:24;;;;;;;414.77;183.02;;;23.70;46.80;;;;;;6595566;26;85174;-64
2024/04/24 09:30:24;;;;;;;347.65;155.73;;;23.80;46.80;;;;;;6602149;26;85303;-63
2024/04/24 09:33:24;;;;;;;280.90;124.93;;;23.70;47.00;;;;;;6569349;26;84439;-63
2024/04/24 09:36:25;;;;;;;250.00;107.38;;;23.80;46.70;;;;;;6557448;26;92234;-64
2024/04/24 09:39:26;;;;;;;210.05;94.90;;;23.70;46.60;;;;;;6536236;26;86472;-65
2024/04/24 09:42:26;;;;;;;206.27;92.57;;;23.80;46.70;;;;;;6553253;26;84901;-66
2024/04/24 09:45:27;;;;;;;182.07;86.80;;;23.80;46.60;;;;;;6552164;26;82804;-65
2024/04/24 09:48:28;;;;;;;175.13;81.07;;;23.80;46.60;;;;;;6549849;26;86407;-63
2024/04/24 09:51:28;;;;;;;164.18;72.80;;;23.70;46.50;;;;;;6552252;26;86424;-63
2024/04/24 09:54:29;;;;;;;156.30;69.28;;;23.70;46.70;;;;;;6551664;26;82736;-61
2024/04/24 09:57:29;;;;;;;145.88;63.80;;;23.70;46.70;;;;;;6555340;26;82532;-64
2024/04/24 10:00:30;;;;;;;144.52;62.45;;;23.70;46.50;;;;;;6551661;26;83015;-64
2024/04/24 10:03:30;;;;;;;119.97;58.65;;;23.70;46.50;;;;;;6556367;26;82771;-65
2024/04/24 10:06:31;;;;;;;119.05;55.33;;;23.70;46.50;;;;;;6546677;26;83613;-64
2024/04/24 10:09:31;;;;;;;119.40;53.15;;;23.70;46.40;;;;;;6552888;26;83694;-62
2024/04/24 10:12:32;;;;;;;109.35;50.88;;;23.70;46.50;;;;;;6556664;26;82993;-64
2024/04/24 10:15:33;;;;;;;107.75;47.65;;;23.70;46.50;;;;;;6549735;26;83044;-64
2024/04/24 10:18:33;;;;;;;94.75;45.15;;;23.70;46.50;;;;;;6548194;26;82910;-59
2024/04/24 10:21:34;;;;;;;94.90;44.03;;;23.60;46.60;;;;;;6550185;26;82979;-60
2024/04/24 10:24:34;;;;;;;96.78;43.08;;;23.70;46.50;;;;;;6541726;26;83398;-60
2024/04/24 10:27:35;;;;;;;90.43;42.10;;;23.70;46.60;;;;;;6551989;26;85581;-60
2024/04/24 10:30:35;;;;;;;96.47;41.15;;;23.60;46.40;;;;;;6530418;26;88836;-59
2024/04/24 10:33:36;;;;;;;91.93;37.53;;;23.20;52.80;;;;;;6549462;26;83116;-59
2024/04/24 10:36:36;;;;;;;90.00;36.55;;;23.70;48.50;;;;;;6535254;26;82464;-60
2024/04/24 10:39:37;;;;;;;77.72;34.65;;;23.70;46.70;;;;;;6545682;26;83451;-59
2024/04/24 10:42:37;;;;;;;76.45;32.40;;;23.70;46.60;;;;;;6519932;26;88732;-59
2024/04/24 10:45:38;;;;;;;74.32;32.97;;;23.60;46.60;;;;;;6575871;26;81357;-61
2024/04/24 10:48:38;;;;;;;72.15;31.30;;;23.60;46.60;;;;;;6553318;26;81616;-60
2024/04/24 10:51:40;;;;;;;57.65;28.70;;;23.60;47.20;;;;;;6562321;26;82597;-59
2024/04/24 10:54:40;;;;;;;53.80;26.05;;;23.60;47.00;;;;;;6514905;26;81660;-59
2024/04/24 10:57:41;;;;;;;57.60;26.67;;;23.60;47.40;;;;;;6565495;26;85687;-59
2024/04/24 11:00:41;;;;;;;52.97;22.05;;;23.70;47.60;;;;;;6587679;26;82759;-60
2024/04/24 11:03:42;;;;;;;46.72;22.38;;;23.70;47.70;;;;;;6547753;26;81451;-59
2024/04/24 11:06:42;;;;;;;47.42;23.38;;;23.70;47.50;;;;;;6565627;26;82570;-60
2024/04/24 11:09:43;;;;;;;48.45;21.15;;;23.70;47.60;;;;;;6535048;26;81931;-59
2024/04/24 11:12:43;;;;;;;46.85;21.27;;;23.70;47.40;;;;;;6595309;26;81986;-59
2024/04/24 11:15:44;;;;;;;41.40;19.90;;;23.70;47.30;;;;;;6572734;26;81982;-59
2024/04/24 11:18:45;;;;;;;43.03;19.52;;;23.70;47.70;;;;;;6578776;26;81911;-56
2024/04/24 11:21:45;;;;;;;36.58;18.50;;;23.70;48.00;;;;;;6556148;26;82027;-53
2024/04/24 11:24:46;;;;;;;46.47;18.15;;;23.70;48.10;;;;;;6540681;26;82933;-55
2024/04/24 11:27:47;;;;;;;37.40;19.80;;;23.70;48.50;;;;;;6533245;26;82115;-54
2024/04/24 11:30:49;;;;;;;45.10;17.23;;;23.70;48.70;;;;;;6518262;26;86052;-57
2024/04/24 11:33:49;;;;;;;33.28;17.13;;;23.70;49.00;;;;;;6562946;26;85536;-54
2024/04/24 11:36:50;;;;;;;32.97;15.82;;;23.70;48.70;;;;;;6563292;26;81908;-54
2024/04/24 11:39:51;;;;;;;27.38;14.20;;;23.70;49.00;;;;;;6570222;26;82586;-55
2024/04/24 11:42:51;;;;;;;34.88;14.73;;;23.70;49.20;;;;;;6607404;26;82494;-55
2024/04/24 11:45:52;;;;;;;39.72;14.57;;;23.70;49.90;;;;;;6600249;26;83325;-55
2024/04/24 11:48:52;;;;;;;26.63;12.90;;;23.70;50.60;;;;;;6604353;26;82685;-58
2024/04/24 11:51:53;;;;;;;25.15;12.63;;;23.70;50.80;;;;;;6613518;26;81618;-62
2024/04/24 11:54:53;;;;;;;24.65;12.82;;;23.70;50.90;;;;;;6614179;26;81633;-63
2024/04/24 11:57:54;;;;;;;25.23;12.50;;;23.70;51.00;;;;;;6575804;26;81842;-60
2024/04/24 12:00:54;;;;;;;26.58;12.45;;;23.70;51.00;;;;;;6583764;26;82134;-60
2024/04/24 12:03:55;;;;;;;25.30;11.18;;;23.70;52.10;;;;;;6571618;26;82431;-62
2024/04/24 12:06:55;;;;;;;20.60;11.43;;;23.70;51.90;;;;;;6586563;26;86332;-60
2024/04/24 12:09:56;;;;;;;24.17;11.32;;;23.70;51.80;;;;;;6597510;26;82625;-71
2024/04/24 12:12:57;;;;;;;19.52;11.20;;;23.70;52.30;;;;;;6599255;26;83831;-69
2024/04/24 12:15:58;;;;;;;17.42;10.32;;;23.80;52.10;;;;;;6591702;26;82762;-68
2024/04/24 12:18:58;;;;;;;24.50;10.48;;;23.80;51.90;;;;;;6584181;26;82181;-65
2024/04/24 12:22:00;;;;;;;18.35;9.82;;;23.80;52.40;;;;;;6569986;26;81322;-63
2024/04/24 12:25:01;;;;;;;20.23;9.40;;;23.80;52.00;;;;;;6563439;26;83817;-66
2024/04/24 12:28:01;;;;;;;23.08;10.38;;;23.80;52.00;;;;;;6570412;26;81476;-62
2024/04/24 12:31:02;;;;;;;21.02;9.25;;;23.80;52.40;;;;;;6563831;26;87560;-63
2024/04/24 12:34:02;;;;;;;17.65;9.48;;;23.80;52.20;;;;;;6572248;26;80005;-60
2024/04/24 12:37:03;;;;;;;20.33;8.63;;;23.80;51.90;;;;;;6556670;26;79902;-60
2024/04/24 12:40:04;;;;;;;15.63;9.00;;;23.80;52.30;;;;;;6577066;26;80521;-61
2024/04/24 12:43:04;;;;;;;21.88;8.93;;;23.80;51.70;;;;;;6575546;26;79237;-59
2024/04/24 12:46:05;;;;;;;20.02;8.93;;;23.80;51.90;;;;;;6581133;26;82329;-66
2024/04/24 12:49:05;;;;;;;30.38;9.20;;;23.80;52.20;;;;;;6570963;26;79157;-67
2024/04/24 12:52:06;;;;;;;13.05;7.47;;;23.80;52.00;;;;;;6569482;26;79825;-68
2024/04/24 12:55:07;;;;;;;15.00;8.52;;;23.80;52.00;;;;;;6565523;26;79200;-66
2024/04/24 12:58:08;;;;;;;15.48;7.47;;;23.80;51.90;;;;;;6549831;26;78786;-64
2024/04/24 13:01:09;;;;;;;19.00;9.07;;;23.80;51.60;;;;;;6562412;26;79421;-64
2024/04/24 13:04:10;;;;;;;15.38;7.30;;;23.70;51.50;;;;;;6577068;26;78991;-60
2024/04/24 13:07:10;;;;;;;15.65;8.32;;;23.70;51.50;;;;;;6562239;26;79665;-59
2024/04/24 13:10:11;;;;;;;13.15;7.75;;;23.70;51.40;;;;;;6558974;26;79142;-59
2024/04/24 13:13:11;;;;;;;16.35;8.07;;;23.70;51.20;;;;;;6601009;26;80548;-58
2024/04/24 13:16:12;;;;;;;12.93;8.27;;;23.70;51.10;;;;;;6613108;26;80980;-60
2024/04/24 13:19:12;;;;;;;15.20;7.43;;;23.60;50.90;;;;;;6600301;26;80120;-60
2024/04/24 13:22:13;;;;;;;16.13;7.78;;;23.60;50.70;;;;;;6604546;26;85683;-60
2024/04/24 13:25:13;;;;;;;13.82;7.78;;;23.60;50.60;;;;;;6586050;26;84370;-60
2024/04/24 13:28:14;;;;;;;15.85;7.95;;;23.60;50.50;;;;;;6539037;26;79119;-59
2024/04/24 13:31:14;;;;;;;10.68;7.57;;;23.60;50.40;;;;;;6539000;26;80895;-60
2024/04/24 13:34:15;;;;;;;11.98;7.60;;;23.60;50.20;;;;;;6543359;26;80113;-60
2024/04/24 13:37:16;;;;;;;13.05;7.60;;;23.60;50.10;;;;;;6541342;26;78993;-59
2024/04/24 13:40:16;;;;;;;11.82;7.78;;;23.60;50.00;;;;;;6541038;26;80960;-61
2024/04/24 13:43:17;;;;;;;16.23;7.55;;;23.60;50.00;;;;;;6542011;26;82602;-60
2024/04/24 13:46:17;;;;;;;12.13;6.97;;;23.60;50.00;;;;;;6540020;26;80656;-60
2024/04/24 13:49:18;;;;;;;17.80;7.20;;;23.60;50.00;;;;;;6564862;26;79357;-61
2024/04/24 13:52:18;;;;;;;12.20;6.60;;;23.50;49.90;;;;;;6599628;26;80069;-61
2024/04/24 13:55:19;;;;;;;13.68;6.53;;;23.50;49.80;;;;;;6593315;26;78849;-61
2024/04/24 13:58:20;;;;;;;11.02;7.80;;;23.50;49.60;;;;;;6568823;26;79418;-64
2024/04/24 14:01:21;;;;;;;16.20;6.93;;;23.50;49.50;;;;;;6579181;26;79866;-63
2024/04/24 14:04:21;;;;;;;15.45;7.57;;;23.50;49.50;;;;;;6590234;26;80523;-62
2024/04/24 14:07:22;;;;;;;15.10;6.65;;;23.60;49.40;;;;;;6578250;26;81669;-62
2024/04/24 14:10:22;;;;;;;17.00;6.88;;;23.60;49.80;;;;;;6572576;26;81146;-63
2024/04/24 14:13:23;;;;;;;19.33;7.38;;;23.60;50.10;;;;;;6560341;26;80841;-63
2024/04/24 14:16:23;;;;;;;16.38;6.55;;;23.60;50.30;;;;;;6571181;26;79171;-62
2024/04/24 14:19:24;;;;;;;18.02;6.85;;;23.60;50.30;;;;;;6566449;26;79964;-55
2024/04/24 14:22:24;;;;;;;18.33;6.57;;;23.60;50.20;;;;;;6566630;26;83948;-58
2024/04/24 14:25:25;;;;;;;43.45;18.02;;;23.60;50.10;;;;;;6570123;26;84415;-60
2024/04/24 14:28:25;;;;;;;154.43;72.25;;;23.70;50.40;;;;;;6566694;26;85504;-58
2024/04/24 14:31:26;;;;;;;137.27;62.55;;;23.70;50.50;;;;;;6566215;26;83015;-57
2024/04/24 14:34:27;;;;;;;182.57;89.28;;;23.80;50.30;;;;;;6592874;26;87093;-52
2024/04/24 14:37:27;;;;;;;205.00;99.95;;;23.80;50.40;;;;;;6590592;26;82390;-61
2024/04/24 14:40:28;;;;;;;248.82;116.43;;;23.80;50.50;;;;;;6571825;26;85805;-63
2024/04/24 14:43:28;;;;;;;295.42;132.90;;;23.80;50.50;;;;;;6589567;26;84885;-63
2024/04/24 14:46:29;;;;;;;353.08;164.75;;;23.80;50.40;;;;;;6586941;25;84016;-60
2024/04/24 14:49:29;;;;;;;383.75;176.30;;;23.80;50.50;;;;;;6565641;26;83673;-62
2024/04/24 14:52:30;;;;;;;358.23;164.07;;;23.80;50.40;;;;;;6573781;26;85009;-63
2024/04/24 14:55:32;;;;;;;309.75;145.63;;;23.80;50.40;;;;;;6569888;26;84109;-63
2024/04/24 14:58:32;;;;;;;259.45;125.70;;;23.90;50.40;;;;;;6564364;26;85536;-64
2024/04/24 15:01:33;;;;;;;238.68;111.88;;;23.90;50.50;;;;;;6582555;26;85443;-64
2024/04/24 15:04:33;;;;;;;220.57;102.95;;;23.90;50.40;;;;;;6568069;26;84713;-64
2024/04/24 15:07:35;;;;;;;198.13;91.93;;;23.90;50.40;;;;;;6571637;26;83983;-63
2024/04/24 15:10:35;;;;;;;195.43;90.93;;;23.90;50.40;;;;;;6566784;26;84941;-62
2024/04/24 15:13:36;;;;;;;174.10;83.60;;;24.00;50.50;;;;;;6584920;26;81652;-54
2024/04/24 15:16:36;;;;;;;168.40;81.82;;;24.00;50.50;;;;;;6571751;26;81533;-58
2024/04/24 15:19:37;;;;;;;151.13;70.90;;;24.00;50.90;;;;;;6570525;26;81889;-57
2024/04/24 15:22:37;;;;;;;141.85;68.18;;;24.00;50.60;;;;;;6576543;26;82966;-54
2024/04/24 15:25:38;;;;;;;149.77;70.40;;;24.00;50.50;;;;;;6566803;26;82534;-58